Accueil
METAR-TAF:

METAR-TAF

Aéroports :

Djeddah, Arabie saoudite

Aéroport international Roi-Abdelaziz

latitude: 21-42N, longitude: 039-11E, altitude: 15 m

Observation

Le bulletin a été fait il y a 48 minutes, à 04:00 UTC
Vent 3 kt de nord/nord-est
Température 25°C
Humidité 83%
Pression 1009 hPa
Visibilité: 7000 m
Ciel clair

METAR: OEJN 220400Z 03003KT 7000 SKC 25/22 Q1009 NOSIG

Heure: 07:48 (04:48 UTC)

Prévision

Le bulletin a été fait il y a 5 heures et 48 minutes, à 23:00 UTC
Prévision valable du 22 à 00 UTC au 23 à 16 UTC
Vent 3 kt de direction variable
Visibilité 10 km ou plus
pas de nuages en-dessous de 1500 mètres et pas de cumulonimbus.
Temporairement
du 22 à 00 UTC au 22 à 05 UTC
Visibilité: 4000 m
brume
Evoluant progressivement
du 22 à 06 UTC au 22 à 08 UTC
Vent 13 kt de ouest/nord-ouest

TAF: OEJN 212300Z 2200/2316 VRB03KT CAVOK TEMPO 2200/2205 4000 BR BECMG 2206/2208 30013KT

Observations et prévisions météorologiques de plus de 4000 aéroports (messages METAR et TAF).

Les stations disponibles sont représentées par des disques jaunes et rouges sur la carte.

Passer la souris dessus pour voir le nom de la station.

Cliquer dessus pour voir les observations et prévisions météorologiques.

Pour changer de carte: cliquez sur les boutons verts avec une croix noire pour zoomer, sur le bouton vert avec un tiret pour effectuer un zoom arrière, ou sur les flèches vertes pour les cartes adjacentes.


METAR-TAF: